Time;durP1;ratioP1;P1;durP2;ratioP2;P2;SDS_P1;SDS_P2;PMS_P1;PMS_P2;Temp;Humidity;BMP_temperature;BMP_pressure;BME280_temperature;BME280_humidity;BME280_pressure;Samples;Min_cycle;Max_cycle;Signal;HPM_P1;HPM_P2
2023/06/26 02:01:37;;;;;;;6.65;5.15;;;;;;;;;;4638893;27;20719;-74
2023/06/26 02:04:04;;;;;;;8.15;5.40;;;;;;;;;;4318540;33;20374;-73
2023/06/26 02:06:30;;;;;;;6.95;4.80;;;;;;;;;;4282867;33;20072;-74
2023/06/26 02:08:59;;;;;;;6.10;5.30;;;;;;;;;;4265807;33;20059;-74
2023/06/26 02:11:25;;;;;;;11.82;5.62;;;;;;;;;;4273974;33;20367;-74
2023/06/26 02:13:52;;;;;;;8.10;4.37;;;;;;;;;;4292757;33;20431;-74
2023/06/26 02:16:18;;;;;;;12.52;6.15;;;;;;;;;;4266748;33;20073;-74
2023/06/26 02:18:44;;;;;;;7.70;5.70;;;;;;;;;;4266102;33;20058;-74
2023/06/26 02:21:10;;;;;;;7.72;5.30;;;;;;;;;;4265649;33;20053;-74
2023/06/26 02:23:37;;;;;;;8.10;5.40;;;;;;;;;;4251078;33;20073;-74
2023/06/26 02:26:04;;;;;;;7.10;5.75;;;;;;;;;;4252207;33;20485;-74
2023/06/26 02:28:31;;;;;;;6.65;4.90;;;;;;;;;;4249628;33;20108;-74
2023/06/26 02:30:57;;;;;;;7.70;5.30;;;;;;;;;;4252649;33;20113;-74
2023/06/26 02:33:24;;;;;;;11.07;5.20;;;;;;;;;;4250472;33;20370;-74
2023/06/26 02:35:50;;;;;;;5.68;4.95;;;;;;;;;;4245704;33;20279;-74
2023/06/26 02:38:17;;;;;;;7.62;5.43;;;;;;;;;;4236865;33;20121;-75
2023/06/26 02:40:43;;;;;;;8.48;5.28;;;;;;;;;;4236491;33;20065;-74
2023/06/26 02:43:09;;;;;;;10.70;4.70;;;;;;;;;;4238460;33;20117;-74
2023/06/26 02:45:35;;;;;;;7.30;4.97;;;;;;;;;;4250316;33;20046;-73
2023/06/26 02:48:02;;;;;;;11.52;5.45;;;;;;;;;;4288334;33;20049;-74
2023/06/26 02:50:29;;;;;;;7.85;5.87;;;;;;;;;;4294759;33;20071;-75
2023/06/26 02:52:57;;;;;;;7.37;5.40;;;;;;;;;;4291729;33;20065;-74
2023/06/26 02:55:23;;;;;;;7.60;5.28;;;;;;;;;;4294997;33;20549;-75
2023/06/26 02:57:51;;;;;;;6.97;5.37;;;;;;;;;;4294702;33;20125;-75
2023/06/26 03:00:17;;;;;;;11.02;6.32;;;;;;;;;;4326287;33;20047;-76
2023/06/26 03:02:44;;;;;;;9.98;5.53;;;;;;;;;;4337828;33;20393;-75
2023/06/26 03:05:13;;;;;;;8.70;5.07;;;;;;;;;;4340575;33;20056;-75
2023/06/26 03:07:39;;;;;;;10.23;5.22;;;;;;;;;;4340940;33;20055;-76
2023/06/26 03:10:06;;;;;;;8.98;5.53;;;;;;;;;;4340430;33;20073;-74
2023/06/26 03:12:32;;;;;;;9.57;5.47;;;;;;;;;;4322025;33;20048;-76
2023/06/26 03:14:58;;;;;;;8.32;6.22;;;;;;;;;;4320235;33;20122;-74
2023/06/26 03:17:24;;;;;;;8.02;5.87;;;;;;;;;;4323665;33;20187;-75
2023/06/26 03:19:53;;;;;;;7.82;5.28;;;;;;;;;;4323637;33;20070;-75
2023/06/26 03:22:19;;;;;;;10.13;5.95;;;;;;;;;;4323491;33;20090;-75
2023/06/26 03:24:46;;;;;;;11.38;5.80;;;;;;;;;;4319118;33;20033;-76
2023/06/26 03:27:13;;;;;;;13.23;5.70;;;;;;;;;;4313308;33;20061;-75
2023/06/26 03:29:39;;;;;;;11.60;6.25;;;;;;;;;;4323055;33;20063;-76
2023/06/26 03:32:06;;;;;;;9.77;6.80;;;;;;;;;;4323268;33;20057;-76
2023/06/26 03:34:32;;;;;;;8.95;6.05;;;;;;;;;;4314914;33;20067;-76
2023/06/26 03:36:59;;;;;;;9.07;6.05;;;;;;;;;;4307431;33;20488;-76
2023/06/26 03:39:25;;;;;;;7.65;5.87;;;;;;;;;;4308851;33;20045;-75
2023/06/26 03:41:53;;;;;;;11.05;6.07;;;;;;;;;;4323210;33;20115;-76
2023/06/26 03:44:19;;;;;;;15.63;6.95;;;;;;;;;;4323171;33;20369;-75
2023/06/26 03:46:46;;;;;;;11.32;5.90;;;;;;;;;;4323199;33;20090;-76
2023/06/26 03:49:12;;;;;;;13.05;6.10;;;;;;;;;;4322246;33;20519;-75
2023/06/26 03:51:39;;;;;;;11.18;6.00;;;;;;;;;;4322261;33;20052;-75
2023/06/26 03:54:05;;;;;;;9.25;6.60;;;;;;;;;;4322645;33;20074;-76
2023/06/26 03:56:31;;;;;;;9.60;6.37;;;;;;;;;;4323141;33;20104;-75
2023/06/26 03:58:57;;;;;;;9.65;5.55;;;;;;;;;;4322836;33;20070;-75
2023/06/26 04:01:26;;;;;;;9.52;7.07;;;;;;;;;;4321822;33;20051;-75
2023/06/26 04:03:52;;;;;;;11.95;6.47;;;;;;;;;;4321981;33;20074;-76
2023/06/26 04:06:18;;;;;;;11.82;6.75;;;;;;;;;;4306748;33;20064;-75
2023/06/26 04:08:44;;;;;;;11.40;5.97;;;;;;;;;;4322504;33;20431;-75
2023/06/26 04:11:17;;;;;;;15.25;7.18;;;;;;;;;;4318592;33;20674;-76
2023/06/26 04:13:43;;;;;;;10.07;6.55;;;;;;;;;;4318989;33;20033;-76
2023/06/26 04:16:11;;;;;;;11.38;7.28;;;;;;;;;;4314838;33;20173;-76
2023/06/26 04:18:37;;;;;;;16.33;6.00;;;;;;;;;;4308233;33;20402;-76
2023/06/26 04:21:13;;;;;;;18.80;7.30;;;;;;;;;;4308156;33;20071;-76
2023/06/26 04:23:40;;;;;;;9.40;6.05;;;;;;;;;;4304170;33;20471;-76
2023/06/26 04:26:06;;;;;;;14.10;7.35;;;;;;;;;;4311238;33;20380;-75
2023/06/26 04:28:33;;;;;;;13.32;6.93;;;;;;;;;;4307792;33;20376;-76
2023/06/26 04:31:00;;;;;;;12.35;6.85;;;;;;;;;;4307744;33;20065;-75
2023/06/26 04:33:26;;;;;;;15.23;7.35;;;;;;;;;;4303651;33;20049;-74
2023/06/26 04:35:53;;;;;;;9.75;6.65;;;;;;;;;;4311844;33;20053;-75
2023/06/26 04:38:19;;;;;;;11.30;6.62;;;;;;;;;;4328309;33;20035;-75
2023/06/26 04:40:46;;;;;;;12.25;7.35;;;;;;;;;;4334013;33;20087;-74
2023/06/26 04:43:12;;;;;;;15.25;7.45;;;;;;;;;;4337286;33;20139;-75
2023/06/26 04:45:38;;;;;;;14.00;7.10;;;;;;;;;;4322818;33;20068;-76
2023/06/26 04:48:05;;;;;;;14.65;7.35;;;;;;;;;;4324980;33;20143;-75
2023/06/26 04:50:33;;;;;;;8.85;6.68;;;;;;;;;;4333427;33;20086;-75
2023/06/26 04:52:59;;;;;;;13.55;7.35;;;;;;;;;;4324219;33;20405;-77
2023/06/26 04:55:26;;;;;;;9.88;7.12;;;;;;;;;;4305423;33;20083;-76
2023/06/26 04:57:52;;;;;;;13.93;6.50;;;;;;;;;;4305650;33;20431;-76
2023/06/26 05:00:19;;;;;;;14.82;7.70;;;;;;;;;;4306570;33;20061;-77
2023/06/26 05:02:45;;;;;;;12.30;5.70;;;;;;;;;;4304720;33;20078;-76
2023/06/26 05:05:11;;;;;;;10.27;6.37;;;;;;;;;;4303584;33;20055;-73
2023/06/26 05:07:38;;;;;;;9.77;6.68;;;;;;;;;;4305934;33;20106;-76
2023/06/26 05:10:04;;;;;;;13.60;7.60;;;;;;;;;;4305066;33;20048;-76
2023/06/26 05:12:30;;;;;;;11.27;6.97;;;;;;;;;;4306766;33;20083;-76
2023/06/26 05:14:57;;;;;;;9.95;6.25;;;;;;;;;;4305417;33;20064;-76
2023/06/26 05:17:22;;;;;;;10.07;6.00;;;;;;;;;;4306943;33;20062;-75
2023/06/26 05:19:49;;;;;;;9.00;5.75;;;;;;;;;;4306543;33;20045;-74
2023/06/26 05:22:16;;;;;;;7.57;5.85;;;;;;;;;;4290742;33;20063;-74
2023/06/26 05:24:46;;;;;;;13.32;6.43;;;;;;;;;;4294998;33;20070;-75
2023/06/26 05:27:19;;;;;;;8.90;5.55;;;;;;;;;;4305837;33;20045;-76
2023/06/26 05:29:45;;;;;;;7.10;5.35;;;;;;;;;;4305524;33;20075;-76
2023/06/26 05:32:14;;;;;;;14.65;6.40;;;;;;;;;;4277982;33;20503;-79
2023/06/26 05:34:41;;;;;;;8.73;6.20;;;;;;;;;;4288774;33;20071;-77
2023/06/26 05:37:07;;;;;;;10.27;6.18;;;;;;;;;;4284413;33;20071;-77
2023/06/26 05:39:34;;;;;;;11.02;6.90;;;;;;;;;;4289568;33;20029;-77
2023/06/26 05:42:00;;;;;;;9.40;6.00;;;;;;;;;;4280219;33;20029;-75
2023/06/26 05:44:27;;;;;;;6.60;5.55;;;;;;;;;;4278855;33;20067;-76
2023/06/26 05:46:53;;;;;;;8.65;5.03;;;;;;;;;;4280423;33;20120;-75
2023/06/26 05:49:19;;;;;;;8.30;5.47;;;;;;;;;;4281033;33;20431;-76
2023/06/26 05:51:45;;;;;;;7.70;5.80;;;;;;;;;;4284475;33;20038;-76
2023/06/26 05:54:13;;;;;;;11.88;6.43;;;;;;;;;;4281116;33;20460;-75
2023/06/26 05:56:39;;;;;;;15.90;5.65;;;;;;;;;;4273268;33;20057;-75
2023/06/26 05:59:05;;;;;;;11.70;6.80;;;;;;;;;;4290807;33;20078;-76
2023/06/26 06:01:33;;;;;;;15.60;7.05;;;;;;;;;;4310602;33;20449;-75
2023/06/26 06:03:59;;;;;;;8.07;5.82;;;;;;;;;;4304132;33;20565;-75
2023/06/26 06:06:25;;;;;;;8.10;6.68;;;;;;;;;;4330713;33;20119;-74
2023/06/26 06:08:51;;;;;;;6.22;4.50;;;;;;;;;;4340718;33;20078;-75
2023/06/26 06:11:18;;;;;;;7.72;5.35;;;;;;;;;;4341355;33;20066;-75
2023/06/26 06:13:44;;;;;;;6.40;4.75;;;;;;;;;;4333826;33;20077;-75
2023/06/26 06:16:10;;;;;;;8.00;4.70;;;;;;;;;;4340130;33;20217;-75
2023/06/26 06:18:37;;;;;;;10.75;4.28;;;;;;;;;;4339057;33;20040;-76
2023/06/26 06:21:02;;;;;;;7.85;5.07;;;;;;;;;;4339785;33;20568;-74
2023/06/26 06:23:29;;;;;;;9.02;4.50;;;;;;;;;;4338403;33;20089;-74
2023/06/26 06:25:55;;;;;;;7.90;4.18;;;;;;;;;;4341049;33;20036;-73
2023/06/26 06:28:21;;;;;;;13.90;3.95;;;;;;;;;;4339766;33;20044;-75
2023/06/26 06:30:47;;;;;;;5.55;3.62;;;;;;;;;;4337272;33;20359;-73
2023/06/26 06:33:14;;;;;;;8.73;4.47;;;;;;;;;;4335716;33;20074;-73
2023/06/26 06:35:40;;;;;;;19.60;4.95;;;;;;;;;;4340586;33;20099;-73
2023/06/26 06:38:06;;;;;;;5.82;4.80;;;;;;;;;;4340257;33;20476;-72
2023/06/26 06:40:32;;;;;;;8.70;4.32;;;;;;;;;;4335938;33;20154;-73
2023/06/26 06:42:59;;;;;;;8.55;3.78;;;;;;;;;;4337641;33;20048;-73
2023/06/26 06:45:24;;;;;;;6.30;4.35;;;;;;;;;;4334044;33;20078;-72
2023/06/26 06:47:51;;;;;;;5.68;3.60;;;;;;;;;;4339456;33;20544;-72
2023/06/26 06:50:17;;;;;;;8.02;3.40;;;;;;;;;;4340996;33;20056;-73
2023/06/26 06:52:44;;;;;;;6.87;4.00;;;;;;;;;;4312531;33;20044;-73
2023/06/26 06:55:10;;;;;;;19.50;4.28;;;;;;;;;;4318315;33;20047;-73
2023/06/26 06:57:38;;;;;;;7.35;4.47;;;;;;;;;;4321952;33;20052;-73
2023/06/26 07:00:04;;;;;;;4.80;3.75;;;;;;;;;;4319624;33;20101;-72
2023/06/26 07:02:31;;;;;;;6.05;4.35;;;;;;;;;;4317929;33;20058;-73
2023/06/26 07:05:03;;;;;;;8.63;4.53;;;;;;;;;;4316101;33;20100;-72
2023/06/26 07:07:31;;;;;;;13.07;3.80;;;;;;;;;;4321966;33;20070;-73
2023/06/26 07:10:01;;;;;;;3.75;3.12;;;;;;;;;;4318704;33;20063;-73
2023/06/26 07:12:27;;;;;;;3.72;3.40;;;;;;;;;;4320407;33;20445;-72
2023/06/26 07:15:00;;;;;;;4.22;3.25;;;;;;;;;;4318927;33;20044;-72
2023/06/26 07:17:26;;;;;;;6.03;3.55;;;;;;;;;;4320736;33;20044;-72
2023/06/26 07:19:52;;;;;;;4.85;3.72;;;;;;;;;;4293858;33;20040;-72
2023/06/26 07:22:20;;;;;;;8.80;3.53;;;;;;;;;;4293467;33;20102;-72
2023/06/26 07:24:47;;;;;;;6.20;3.00;;;;;;;;;;4305537;33;20044;-73
2023/06/26 07:27:18;;;;;;;3.10;2.83;;;;;;;;;;4307795;33;20049;-73
2023/06/26 07:29:44;;;;;;;6.62;3.35;;;;;;;;;;4308441;33;20059;-74
2023/06/26 07:32:10;;;;;;;7.78;3.33;;;;;;;;;;4307177;33;20056;-74
2023/06/26 07:34:36;;;;;;;3.90;3.60;;;;;;;;;;4306902;33;20202;-74
2023/06/26 07:37:03;;;;;;;3.28;2.97;;;;;;;;;;4304812;33;20048;-74
2023/06/26 07:39:29;;;;;;;8.73;3.40;;;;;;;;;;4307807;33;20114;-74
2023/06/26 07:41:55;;;;;;;3.50;3.20;;;;;;;;;;4307157;33;20040;-72
2023/06/26 07:44:21;;;;;;;4.20;3.80;;;;;;;;;;4306922;33;20078;-72
2023/06/26 07:46:48;;;;;;;5.57;3.53;;;;;;;;;;4307857;33;20114;-71
2023/06/26 07:49:14;;;;;;;3.83;2.83;;;;;;;;;;4305018;33;20041;-72
2023/06/26 07:51:40;;;;;;;3.75;3.45;;;;;;;;;;4318988;33;20064;-72
2023/06/26 07:54:06;;;;;;;6.40;3.28;;;;;;;;;;4330832;33;20135;-72
2023/06/26 07:56:38;;;;;;;4.87;2.95;;;;;;;;;;4337913;33;20051;-72
2023/06/26 07:59:04;;;;;;;5.80;2.85;;;;;;;;;;4339893;33;20052;-73
2023/06/26 08:01:31;;;;;;;5.53;2.97;;;;;;;;;;4336903;33;20069;-72
2023/06/26 08:03:57;;;;;;;6.20;3.95;;;;;;;;;;4338944;33;20051;-73
2023/06/26 08:06:23;;;;;;;3.00;2.78;;;;;;;;;;4325319;33;20075;-72
2023/06/26 08:08:49;;;;;;;5.35;3.10;;;;;;;;;;4331346;33;20525;-72
2023/06/26 08:11:16;;;;;;;2.97;2.67;;;;;;;;;;4332944;33;20174;-72
2023/06/26 08:13:42;;;;;;;4.75;2.45;;;;;;;;;;4305448;33;20068;-72
2023/06/26 08:16:08;;;;;;;2.37;2.25;;;;;;;;;;4299392;33;20063;-72
2023/06/26 08:18:34;;;;;;;2.55;2.33;;;;;;;;;;4299694;33;20066;-72
2023/06/26 08:21:00;;;;;;;3.87;2.80;;;;;;;;;;4303482;33;20052;-73
2023/06/26 08:23:26;;;;;;;3.85;2.70;;;;;;;;;;4300653;33;20442;-73
2023/06/26 08:25:53;;;;;;;5.15;2.75;;;;;;;;;;4303054;33;20049;-73
2023/06/26 08:28:19;;;;;;;5.72;2.92;;;;;;;;;;4291739;33;20045;-73
2023/06/26 08:30:46;;;;;;;3.40;2.78;;;;;;;;;;4305391;33;20060;-74
2023/06/26 08:33:13;;;;;;;3.55;3.03;;;;;;;;;;4295659;33;20041;-73
2023/06/26 08:35:39;;;;;;;3.70;2.97;;;;;;;;;;4294257;33;20433;-73
2023/06/26 08:38:05;;;;;;;9.48;3.28;;;;;;;;;;4291348;33;20054;-73
2023/06/26 08:40:31;;;;;;;2.80;2.60;;;;;;;;;;4293751;33;20096;-72
2023/06/26 08:42:57;;;;;;;3.35;3.03;;;;;;;;;;4291743;33;21031;-72
2023/06/26 08:45:24;;;;;;;3.00;2.70;;;;;;;;;;4322954;33;20044;-72
2023/06/26 08:47:53;;;;;;;2.28;2.17;;;;;;;;;;4301794;33;20053;-73
2023/06/26 08:50:19;;;;;;;2.62;2.45;;;;;;;;;;4301292;33;20074;-72
2023/06/26 08:52:53;;;;;;;7.43;2.90;;;;;;;;;;4300361;33;20036;-71
2023/06/26 08:55:21;;;;;;;3.05;2.60;;;;;;;;;;4300194;33;20057;-72
2023/06/26 08:57:47;;;;;;;4.85;2.85;;;;;;;;;;4297807;33;20105;-73
2023/06/26 09:00:20;;;;;;;3.40;2.87;;;;;;;;;;4297452;33;20115;-73
2023/06/26 09:02:46;;;;;;;2.65;2.45;;;;;;;;;;4295790;33;20052;-72
2023/06/26 09:05:12;;;;;;;3.10;2.85;;;;;;;;;;4300836;33;20150;-72
2023/06/26 09:07:38;;;;;;;4.55;2.45;;;;;;;;;;4301551;33;20053;-73
2023/06/26 09:10:05;;;;;;;2.62;2.35;;;;;;;;;;4297484;33;20061;-73
2023/06/26 09:12:31;;;;;;;3.62;3.00;;;;;;;;;;4304610;33;20078;-73
2023/06/26 09:14:57;;;;;;;2.95;2.70;;;;;;;;;;4303222;33;20072;-73
2023/06/26 09:17:29;;;;;;;7.82;3.22;;;;;;;;;;4305676;33;20060;-72
2023/06/26 09:19:55;;;;;;;2.55;2.35;;;;;;;;;;4332254;33;20081;-73
2023/06/26 09:22:22;;;;;;;3.35;2.90;;;;;;;;;;4304375;33;20040;-73
2023/06/26 09:24:49;;;;;;;3.30;3.00;;;;;;;;;;4306473;33;20078;-73
2023/06/26 09:27:15;;;;;;;2.75;2.50;;;;;;;;;;4276092;33;20214;-73
2023/06/26 09:29:42;;;;;;;2.78;2.58;;;;;;;;;;4275873;33;20037;-73
2023/06/26 09:32:09;;;;;;;4.45;3.00;;;;;;;;;;4274176;33;20084;-74
2023/06/26 09:34:35;;;;;;;6.55;2.47;;;;;;;;;;4277100;33;20297;-73
2023/06/26 09:37:03;;;;;;;2.95;2.47;;;;;;;;;;4276513;33;20091;-73
2023/06/26 09:39:31;;;;;;;5.65;3.15;;;;;;;;;;4277258;33;20049;-73
2023/06/26 09:41:58;;;;;;;7.03;2.87;;;;;;;;;;4268362;33;20057;-73
2023/06/26 09:44:25;;;;;;;3.12;2.87;;;;;;;;;;4268519;33;20444;-74
2023/06/26 09:46:56;;;;;;;4.50;2.42;;;;;;;;;;4275569;33;20170;-73
2023/06/26 09:49:26;;;;;;;3.60;2.90;;;;;;;;;;4261306;33;20641;-74
2023/06/26 09:51:54;;;;;;;5.22;3.37;;;;;;;;;;4261648;33;20335;-75
2023/06/26 09:54:24;;;;;;;5.15;2.62;;;;;;;;;;4274704;33;20049;-73
2023/06/26 09:56:50;;;;;;;8.40;2.90;;;;;;;;;;4290797;33;20037;-72
2023/06/26 09:59:16;;;;;;;3.00;2.70;;;;;;;;;;4302709;33;20055;-72
2023/06/26 10:01:46;;;;;;;2.92;2.70;;;;;;;;;;4299714;33;20044;-72
2023/06/26 10:04:14;;;;;;;3.40;2.87;;;;;;;;;;4278033;33;20088;-75
2023/06/26 10:06:49;;;;;;;4.95;2.58;;;;;;;;;;4280602;33;20832;-72
2023/06/26 10:09:19;;;;;;;7.43;2.97;;;;;;;;;;4276814;33;20075;-73
2023/06/26 10:11:48;;;;;;;3.72;3.30;;;;;;;;;;4277071;33;20067;-74
2023/06/26 10:14:14;;;;;;;3.62;2.90;;;;;;;;;;4284378;33;20561;-73
2023/06/26 10:16:41;;;;;;;7.47;2.97;;;;;;;;;;4270601;33;20053;-74
2023/06/26 10:19:08;;;;;;;5.37;2.92;;;;;;;;;;4278642;33;20049;-74
2023/06/26 10:21:34;;;;;;;4.55;2.80;;;;;;;;;;4303212;33;20095;-75
2023/06/26 10:24:02;;;;;;;3.70;2.80;;;;;;;;;;4304864;33;20079;-74
2023/06/26 10:26:33;;;;;;;3.30;3.00;;;;;;;;;;4303559;33;20054;-73
2023/06/26 10:29:00;;;;;;;5.97;3.95;;;;;;;;;;4305148;33;20138;-74
2023/06/26 10:31:27;;;;;;;3.30;3.10;;;;;;;;;;4300933;33;20053;-73
2023/06/26 10:33:54;;;;;;;5.78;4.12;;;;;;;;;;4304324;33;20044;-72
2023/06/26 10:36:26;;;;;;;4.18;3.15;;;;;;;;;;4300651;33;20339;-73
2023/06/26 10:38:55;;;;;;;4.43;3.08;;;;;;;;;;4297457;33;20450;-73
2023/06/26 10:41:23;;;;;;;2.85;2.65;;;;;;;;;;4293901;33;20079;-72
2023/06/26 10:43:49;;;;;;;3.83;3.53;;;;;;;;;;4299539;33;20078;-73
2023/06/26 10:46:17;;;;;;;3.55;2.97;;;;;;;;;;4273705;33;20480;-73
2023/06/26 10:48:56;;;;;;;10.98;3.60;;;;;;;;;;4301248;33;20497;-72
2023/06/26 10:51:22;;;;;;;4.25;2.87;;;;;;;;;;4290919;33;20052;-72
2023/06/26 10:53:55;;;;;;;3.00;2.80;;;;;;;;;;4292835;33;20518;-73
2023/06/26 10:56:40;;;;;;;8.73;2.83;;;;;;;;;;4291180;33;20172;-73
2023/06/26 10:59:19;;;;;;;2.87;2.67;;;;;;;;;;4277290;33;20439;-72
2023/06/26 11:01:46;;;;;;;3.47;3.20;;;;;;;;;;4445226;28;20083;-73
2023/06/26 11:04:14;;;;;;;4.87;4.22;;;;;;;;;;4306720;33;20260;-74
2023/06/26 11:06:41;;;;;;;8.88;3.08;;;;;;;;;;4306586;33;20060;-75
2023/06/26 11:09:08;;;;;;;8.90;2.72;;;;;;;;;;4306745;33;20225;-75
2023/06/26 11:11:52;;;;;;;3.20;2.97;;;;;;;;;;4307338;33;20032;-74
2023/06/26 11:14:20;;;;;;;6.90;3.17;;;;;;;;;;4284343;33;20037;-74
2023/06/26 11:16:48;;;;;;;2.92;2.72;;;;;;;;;;4279076;33;20484;-72
2023/06/26 11:19:19;;;;;;;3.12;2.92;;;;;;;;;;4281982;33;20056;-74
2023/06/26 11:21:46;;;;;;;3.28;2.90;;;;;;;;;;4284591;33;20036;-75
2023/06/26 11:24:15;;;;;;;3.03;2.83;;;;;;;;;;4305299;33;20413;-74
2023/06/26 11:26:43;;;;;;;3.05;2.80;;;;;;;;;;4308806;33;20044;-74
2023/06/26 11:29:11;;;;;;;4.95;3.60;;;;;;;;;;4314945;33;20041;-71
2023/06/26 11:31:40;;;;;;;9.90;3.67;;;;;;;;;;4297717;33;20077;-74
2023/06/26 11:34:10;;;;;;;5.00;3.67;;;;;;;;;;4293655;33;20075;-75
2023/06/26 11:36:48;;;;;;;2.92;2.80;;;;;;;;;;4304889;33;20112;-74
2023/06/26 11:39:16;;;;;;;6.25;3.42;;;;;;;;;;4301911;33;20048;-74
2023/06/26 11:41:50;;;;;;;4.07;3.33;;;;;;;;;;4301810;33;20599;-73
2023/06/26 11:44:20;;;;;;;6.55;3.62;;;;;;;;;;4299676;33;20053;-73
2023/06/26 11:46:51;;;;;;;6.00;3.45;;;;;;;;;;4318342;33;20094;-73
2023/06/26 11:49:17;;;;;;;7.15;3.58;;;;;;;;;;4322362;33;20070;-73
2023/06/26 11:51:46;;;;;;;5.35;3.40;;;;;;;;;;4321626;33;20055;-73
2023/06/26 11:54:14;;;;;;;6.53;3.60;;;;;;;;;;4321632;33;20052;-72
2023/06/26 11:56:43;;;;;;;3.28;3.00;;;;;;;;;;4322506;33;20061;-73
2023/06/26 11:59:11;;;;;;;3.45;3.15;;;;;;;;;;4322227;33;20117;-73
2023/06/26 12:01:41;;;;;;;3.50;3.22;;;;;;;;;;4335946;33;20070;-73
2023/06/26 12:04:09;;;;;;;5.72;3.10;;;;;;;;;;4333954;33;20553;-73
2023/06/26 12:06:39;;;;;;;5.25;3.50;;;;;;;;;;4338098;33;20077;-73
2023/06/26 12:09:09;;;;;;;7.35;3.10;;;;;;;;;;4316337;33;20063;-74
2023/06/26 12:11:43;;;;;;;4.10;3.05;;;;;;;;;;4320037;33;20558;-74
2023/06/26 12:14:11;;;;;;;5.50;3.22;;;;;;;;;;4319782;33;20040;-73
2023/06/26 12:16:44;;;;;;;5.68;3.83;;;;;;;;;;4291982;33;20471;-73
2023/06/26 12:19:12;;;;;;;3.92;3.35;;;;;;;;;;4278629;33;20081;-73
2023/06/26 12:21:40;;;;;;;4.68;3.35;;;;;;;;;;4269957;33;20048;-72
2023/06/26 12:24:08;;;;;;;3.65;3.30;;;;;;;;;;4266025;33;20059;-73
2023/06/26 12:26:38;;;;;;;5.37;3.58;;;;;;;;;;4275378;33;20315;-73
2023/06/26 12:29:07;;;;;;;5.25;3.37;;;;;;;;;;4273345;33;20371;-72
2023/06/26 12:31:35;;;;;;;6.85;3.50;;;;;;;;;;4271055;33;20091;-73
2023/06/26 12:34:08;;;;;;;3.58;3.28;;;;;;;;;;4268865;33;20049;-74
2023/06/26 12:36:44;;;;;;;3.70;3.40;;;;;;;;;;4275498;33;20054;-73
2023/06/26 12:39:13;;;;;;;3.53;3.22;;;;;;;;;;4271946;33;20065;-71
2023/06/26 12:41:46;;;;;;;4.93;3.78;;;;;;;;;;4277287;33;20071;-72
2023/06/26 12:44:16;;;;;;;7.12;6.03;;;;;;;;;;4273292;33;20050;-74
2023/06/26 12:46:42;;;;;;;3.62;3.33;;;;;;;;;;4280892;33;20097;-73
2023/06/26 12:49:11;;;;;;;3.08;2.83;;;;;;;;;;4291749;33;20053;-73
2023/06/26 12:51:37;;;;;;;3.22;3.03;;;;;;;;;;4295195;33;20058;-73
2023/06/26 12:54:04;;;;;;;4.78;3.60;;;;;;;;;;4312213;33;20087;-73
2023/06/26 12:56:30;;;;;;;3.37;3.08;;;;;;;;;;4335990;33;20069;-73
2023/06/26 12:58:56;;;;;;;5.43;3.20;;;;;;;;;;4308215;33;20852;-73
2023/06/26 13:01:24;;;;;;;4.43;2.92;;;;;;;;;;4306633;33;20040;-73
2023/06/26 13:03:53;;;;;;;6.55;3.33;;;;;;;;;;4306016;33;20052;-73
2023/06/26 13:06:19;;;;;;;3.37;2.72;;;;;;;;;;4309569;33;20028;-74
2023/06/26 13:08:45;;;;;;;5.12;3.50;;;;;;;;;;4314191;33;20888;-72
2023/06/26 13:11:11;;;;;;;4.32;3.00;;;;;;;;;;4321705;33;20425;-74
2023/06/26 13:13:37;;;;;;;6.03;3.60;;;;;;;;;;4323548;33;20103;-73
2023/06/26 13:16:04;;;;;;;4.00;3.70;;;;;;;;;;4319520;33;20416;-73
2023/06/26 13:18:31;;;;;;;3.40;3.20;;;;;;;;;;4317934;33;20033;-73
2023/06/26 13:20:57;;;;;;;3.53;3.22;;;;;;;;;;4323174;33;20838;-73
2023/06/26 13:23:23;;;;;;;3.40;3.10;;;;;;;;;;4290611;33;20060;-73
2023/06/26 13:25:50;;;;;;;3.55;3.00;;;;;;;;;;4292148;33;20075;-73
2023/06/26 13:28:16;;;;;;;3.92;3.60;;;;;;;;;;4296102;33;20049;-72
2023/06/26 13:30:43;;;;;;;3.50;3.20;;;;;;;;;;4293666;33;20049;-73
2023/06/26 13:33:10;;;;;;;4.05;3.28;;;;;;;;;;4299010;33;20064;-74
2023/06/26 13:35:36;;;;;;;2.55;2.45;;;;;;;;;;4298958;33;20063;-72
2023/06/26 13:38:03;;;;;;;3.40;3.17;;;;;;;;;;4305117;33;20068;-72
2023/06/26 13:40:29;;;;;;;2.62;2.53;;;;;;;;;;4308977;33;20143;-73
2023/06/26 13:42:55;;;;;;;3.05;2.90;;;;;;;;;;4307817;33;20061;-73
2023/06/26 13:45:21;;;;;;;5.57;2.92;;;;;;;;;;4309476;33;20037;-73
2023/06/26 13:47:47;;;;;;;3.37;2.40;;;;;;;;;;4309644;33;20060;-72
2023/06/26 13:50:13;;;;;;;5.37;3.00;;;;;;;;;;4313775;33;20552;-73
2023/06/26 13:52:40;;;;;;;3.08;2.83;;;;;;;;;;4303964;33;20077;-74
2023/06/26 13:55:06;;;;;;;4.28;2.62;;;;;;;;;;4320447;33;20048;-73
2023/06/26 13:57:32;;;;;;;3.22;3.03;;;;;;;;;;4330821;33;20128;-74
2023/06/26 13:59:59;;;;;;;2.97;2.78;;;;;;;;;;4324460;33;20072;-73
2023/06/26 14:02:26;;;;;;;3.25;2.95;;;;;;;;;;4309589;33;20095;-73
2023/06/26 14:04:52;;;;;;;3.37;3.15;;;;;;;;;;4303927;33;20080;-74
2023/06/26 14:07:18;;;;;;;5.15;3.22;;;;;;;;;;4313671;33;20943;-75
2023/06/26 14:09:44;;;;;;;2.80;2.60;;;;;;;;;;4311707;33;20060;-73
2023/06/26 14:12:11;;;;;;;2.90;2.70;;;;;;;;;;4311299;33;20502;-74
2023/06/26 14:14:38;;;;;;;4.75;3.75;;;;;;;;;;4300124;33;20075;-74
2023/06/26 14:17:05;;;;;;;4.53;2.70;;;;;;;;;;4276698;33;20041;-74
2023/06/26 14:19:34;;;;;;;3.20;3.00;;;;;;;;;;4273488;33;20868;-73
2023/06/26 14:22:01;;;;;;;2.45;2.30;;;;;;;;;;4277760;33;20544;-73
2023/06/26 14:24:27;;;;;;;3.40;3.10;;;;;;;;;;4278287;33;20456;-73
2023/06/26 14:26:53;;;;;;;8.00;3.42;;;;;;;;;;4278820;33;20369;-73
2023/06/26 14:29:21;;;;;;;10.32;3.10;;;;;;;;;;4266842;33;20104;-73
2023/06/26 14:31:47;;;;;;;9.32;3.28;;;;;;;;;;4267574;33;20941;-73
2023/06/26 14:34:15;;;;;;;3.30;2.70;;;;;;;;;;4303458;33;20057;-74
2023/06/26 14:36:51;;;;;;;11.68;3.20;;;;;;;;;;4297376;33;20489;-73
2023/06/26 14:39:17;;;;;;;3.83;2.72;;;;;;;;;;4290752;33;20041;-73
2023/06/26 14:41:44;;;;;;;4.50;3.20;;;;;;;;;;4299182;33;20358;-74
2023/06/26 14:44:10;;;;;;;3.42;3.12;;;;;;;;;;4292676;33;20064;-73
2023/06/26 14:46:37;;;;;;;2.67;2.47;;;;;;;;;;4266953;33;20046;-73
2023/06/26 14:49:03;;;;;;;3.20;2.90;;;;;;;;;;4301311;33;20045;-73
2023/06/26 14:51:29;;;;;;;3.17;2.97;;;;;;;;;;4298588;33;20045;-73
2023/06/26 14:53:55;;;;;;;3.78;2.60;;;;;;;;;;4297516;33;20053;-74
2023/06/26 14:56:22;;;;;;;3.78;3.47;;;;;;;;;;4304600;33;20096;-74
2023/06/26 14:58:48;;;;;;;4.43;3.03;;;;;;;;;;4304444;33;20048;-73
2023/06/26 15:01:19;;;;;;;3.25;3.03;;;;;;;;;;4306936;33;20092;-74
2023/06/26 15:03:48;;;;;;;3.10;2.80;;;;;;;;;;4295684;33;20041;-74
2023/06/26 15:06:15;;;;;;;3.15;2.92;;;;;;;;;;4286296;33;20049;-71
2023/06/26 15:08:40;;;;;;;6.03;2.85;;;;;;;;;;4319041;33;20029;-74
2023/06/26 15:11:07;;;;;;;7.60;4.45;;;;;;;;;;4328499;33;20073;-73
2023/06/26 15:13:33;;;;;;;3.42;2.75;;;;;;;;;;4334772;33;20442;-72
2023/06/26 15:15:59;;;;;;;3.78;3.45;;;;;;;;;;4334919;33;20058;-73
2023/06/26 15:18:25;;;;;;;5.07;2.83;;;;;;;;;;4347800;33;20024;-73
2023/06/26 15:20:52;;;;;;;3.75;3.42;;;;;;;;;;4351451;32;20465;-74
2023/06/26 15:23:17;;;;;;;6.05;3.08;;;;;;;;;;4336757;33;20069;-74
2023/06/26 15:25:44;;;;;;;6.40;2.92;;;;;;;;;;4326509;33;20045;-73
2023/06/26 15:28:10;;;;;;;8.07;3.17;;;;;;;;;;4328994;33;20059;-76
2023/06/26 15:30:36;;;;;;;3.42;3.20;;;;;;;;;;4334857;32;20044;-74
2023/06/26 15:33:02;;;;;;;3.37;2.85;;;;;;;;;;4330551;32;20054;-74
2023/06/26 15:35:28;;;;;;;4.40;2.80;;;;;;;;;;4331668;33;20078;-74
2023/06/26 15:37:54;;;;;;;6.30;3.65;;;;;;;;;;4331367;33;20048;-73
2023/06/26 15:40:21;;;;;;;6.80;2.72;;;;;;;;;;4331414;33;20036;-73
2023/06/26 15:42:48;;;;;;;3.75;3.40;;;;;;;;;;4332641;33;20066;-73
2023/06/26 15:45:15;;;;;;;7.05;4.45;;;;;;;;;;4334149;33;20051;-73
2023/06/26 15:47:41;;;;;;;3.75;3.45;;;;;;;;;;4334831;33;20031;-74
2023/06/26 15:50:08;;;;;;;3.33;2.70;;;;;;;;;;4335138;33;20055;-72
2023/06/26 15:52:34;;;;;;;6.28;3.03;;;;;;;;;;4333210;33;20112;-72
2023/06/26 15:55:00;;;;;;;3.33;3.03;;;;;;;;;;4336256;33;20356;-72
2023/06/26 15:57:26;;;;;;;4.65;3.33;;;;;;;;;;4338773;33;20070;-72
2023/06/26 15:59:53;;;;;;;3.85;3.55;;;;;;;;;;4339087;33;20448;-72
2023/06/26 16:02:19;;;;;;;3.50;3.12;;;;;;;;;;4338786;33;20123;-72
2023/06/26 16:04:45;;;;;;;3.55;3.20;;;;;;;;;;4335893;33;20472;-73
2023/06/26 16:07:11;;;;;;;19.30;3.60;;;;;;;;;;4338019;33;20115;-73
2023/06/26 16:09:37;;;;;;;3.40;3.10;;;;;;;;;;4329181;33;20058;-74
2023/06/26 16:12:03;;;;;;;3.12;2.90;;;;;;;;;;4328114;33;20053;-74
2023/06/26 16:14:30;;;;;;;6.85;3.42;;;;;;;;;;4334133;33;20048;-73
2023/06/26 16:16:55;;;;;;;3.50;3.20;;;;;;;;;;4337359;33;20102;-73
2023/06/26 16:19:22;;;;;;;11.32;3.50;;;;;;;;;;4338975;33;20093;-73
2023/06/26 16:21:48;;;;;;;4.30;2.65;;;;;;;;;;4338492;33;20051;-73
2023/06/26 16:24:14;;;;;;;3.22;2.97;;;;;;;;;;4339422;33;20044;-72
2023/06/26 16:26:40;;;;;;;3.12;2.87;;;;;;;;;;4336166;33;20052;-73
2023/06/26 16:29:06;;;;;;;3.78;3.47;;;;;;;;;;4325456;33;20052;-73
2023/06/26 16:31:32;;;;;;;3.97;3.50;;;;;;;;;;4330308;33;20044;-73
2023/06/26 16:33:59;;;;;;;8.13;4.05;;;;;;;;;;4326758;33;20056;-73
2023/06/26 16:36:26;;;;;;;5.07;3.35;;;;;;;;;;4301259;33;20458;-72
2023/06/26 16:38:53;;;;;;;9.95;3.58;;;;;;;;;;4318390;33;20070;-72
2023/06/26 16:41:19;;;;;;;9.27;3.55;;;;;;;;;;4321519;33;20048;-72